Accueil
METAR-TAF:

METAR-TAF

Aéroports :

Aéroport international de Pékin-Capitale

Pékin, Chine

latitude: 39-56N, longitude: 116-17E, altitude: 55 m

Observation

Le bulletin a été fait il y a 33 minutes, à 08:00 UTC
Vent 10 kt de est/sud-est, variant entre est et sud/sud-est
Température 28°C
Humidité 79%
Pression 1005 hPa
Visibilité 10 km ou plus
Quelques nuages à une hauteur de 2000 ft

METAR: ZBAA 140800Z 12005MPS 090V150 9999 FEW020 28/24 Q1005 NOSIG

Heure: 16:33 (08:33 UTC)

Prévision

Le bulletin a été fait il y a 5 heures et 3 minutes, à 03:30 UTC
Prévision valable du 14 à 06 UTC au 15 à 06 UTC
Vent 8 kt de est
Visibilité: 6000 m
Temporairement
du 14 à 21 UTC au 15 à 01 UTC
Visibilité: 2700 m
brume

TAF: ZBAA 140330Z 1406/1506 09004MPS 6000 NSC TX30/1406Z TN24/1421Z TEMPO 1421/1501 2700 BR

Observations et prévisions météorologiques de plus de 4000 aéroports (messages METAR et TAF).

Les stations disponibles sont représentées par des disques jaunes et rouges sur la carte.

Passer la souris dessus pour voir le nom de la station.

Cliquer dessus pour voir les observations et prévisions météorologiques.

Pour changer de carte: cliquez sur les boutons verts avec une croix noire pour zoomer, sur le bouton vert avec un tiret pour effectuer un zoom arrière, ou sur les flèches vertes pour les cartes adjacentes.


METAR-TAF: